createdAt,value
2023-03-29T00:04:02.418Z,-0.44
2023-03-29T00:09:10.950Z,-0.45
2023-03-29T00:14:18.286Z,-0.29
2023-03-29T00:19:25.663Z,-0.16
2023-03-29T00:24:33.159Z,-0.08
2023-03-29T00:29:40.447Z,0.01
2023-03-29T00:34:51.297Z,0.09
2023-03-29T00:39:59.287Z,0.15
2023-03-29T00:45:19.222Z,0.20
2023-03-29T00:50:31.332Z,0.04
2023-03-29T00:55:44.256Z,-0.43
2023-03-29T01:00:55.923Z,-0.76
2023-03-29T01:06:09.188Z,-1.01
2023-03-29T01:11:19.810Z,-1.21
2023-03-29T01:16:28.953Z,-1.39
2023-03-29T01:21:43.051Z,-1.55
2023-03-29T01:27:02.378Z,-1.69
2023-03-29T01:32:13.733Z,-1.81
2023-03-29T01:37:26.971Z,-1.93
2023-03-29T01:42:44.617Z,-2.03
2023-03-29T01:48:01.025Z,-2.12
2023-03-29T01:53:13.534Z,-1.91
2023-03-29T01:58:24.130Z,-1.54
2023-03-29T02:03:42.974Z,-1.45
2023-03-29T02:08:50.889Z,-1.38
2023-03-29T02:13:58.811Z,-1.32
2023-03-29T02:19:07.108Z,-1.36
2023-03-29T02:24:19.689Z,-1.31
2023-03-29T02:29:27.773Z,-1.20
2023-03-29T02:34:41.289Z,-1.14
2023-03-29T02:39:50.295Z,-1.08
2023-03-29T02:45:01.376Z,-1.05
2023-03-29T02:50:10.864Z,-1.04
2023-03-29T02:55:21.632Z,-1.02
2023-03-29T03:00:29.704Z,-1.01
2023-03-29T03:05:37.393Z,-1.00
2023-03-29T03:10:46.253Z,-1.00
2023-03-29T03:15:54.568Z,-1.02
2023-03-29T03:21:02.847Z,-1.04
2023-03-29T03:26:11.169Z,-1.07
2023-03-29T03:31:19.962Z,-1.10
2023-03-29T03:36:47.697Z,-1.14
2023-03-29T03:41:55.088Z,-1.18
2023-03-29T03:47:03.012Z,-1.22
2023-03-29T03:52:11.137Z,-1.27
2023-03-29T03:57:19.131Z,-1.33
2023-03-29T04:02:31.387Z,-1.37
2023-03-29T04:07:38.906Z,-1.43
2023-03-29T04:13:05.445Z,-1.47
2023-03-29T04:18:14.711Z,-1.53
2023-03-29T04:23:26.558Z,-1.58
2023-03-29T04:28:34.746Z,-1.61
2023-03-29T04:33:52.770Z,-1.64
2023-03-29T04:39:01.826Z,-1.67
2023-03-29T04:44:10.054Z,-1.70
2023-03-29T04:49:18.141Z,-1.71
2023-03-29T04:54:28.857Z,-1.71
2023-03-29T04:59:56.786Z,-1.70
2023-03-29T05:05:39.864Z,-1.69
2023-03-29T05:10:48.018Z,-1.66
2023-03-29T05:15:55.643Z,-1.61
2023-03-29T05:21:04.735Z,-1.56
2023-03-29T05:26:15.682Z,-1.49
2023-03-29T05:31:28.574Z,-1.40
2023-03-29T05:36:37.329Z,-1.25
2023-03-29T05:41:45.017Z,-0.98
2023-03-29T05:47:12.815Z,-0.61
2023-03-29T05:52:20.656Z,-0.19
2023-03-29T05:57:28.672Z,0.21
2023-03-29T06:02:37.166Z,0.57
2023-03-29T06:07:44.695Z,0.89
2023-03-29T06:12:54.897Z,1.11
2023-03-29T06:18:04.387Z,1.25
2023-03-29T06:23:11.954Z,1.36
2023-03-29T06:28:20.076Z,1.48
2023-03-29T06:33:28.081Z,1.58
2023-03-29T06:38:44.737Z,1.69
2023-03-29T06:44:28.931Z,1.83
2023-03-29T06:49:41.375Z,1.97
2023-03-29T06:55:12.311Z,2.14
2023-03-29T07:00:28.495Z,2.29
2023-03-29T07:06:02.055Z,2.41
2023-03-29T07:11:10.737Z,2.59
2023-03-29T07:16:19.692Z,2.80
2023-03-29T07:21:38.101Z,2.99
2023-03-29T07:27:00.250Z,3.09
2023-03-29T07:32:10.833Z,3.09
2023-03-29T07:37:25.131Z,3.16
2023-03-29T07:42:33.326Z,3.26
2023-03-29T07:47:41.248Z,3.41
2023-03-29T07:52:49.686Z,3.62
2023-03-29T07:57:57.349Z,3.89
2023-03-29T08:03:06.005Z,4.24
2023-03-29T08:08:14.797Z,4.62
2023-03-29T08:13:36.184Z,4.99
2023-03-29T08:19:07.879Z,5.18
2023-03-29T08:24:32.925Z,5.11
2023-03-29T08:29:43.472Z,5.10
2023-03-29T08:34:51.278Z,5.12
2023-03-29T08:40:04.274Z,5.14
2023-03-29T08:45:27.874Z,5.14
2023-03-29T08:50:42.942Z,5.12
2023-03-29T08:55:53.381Z,5.10
2023-03-29T09:01:25.251Z,5.07
2023-03-29T09:06:36.393Z,5.04
2023-03-29T09:12:09.036Z,5.01
2023-03-29T09:17:28.540Z,4.99
2023-03-29T09:22:45.072Z,4.98
2023-03-29T09:28:00.214Z,4.98
2023-03-29T09:33:27.528Z,4.98
2023-03-29T09:38:56.029Z,4.98
2023-03-29T09:44:23.967Z,4.96
2023-03-29T09:49:42.195Z,4.95
2023-03-29T09:54:50.435Z,4.96
2023-03-29T10:00:11.132Z,4.95
2023-03-29T10:05:22.474Z,4.96
2023-03-29T10:10:33.124Z,4.97
2023-03-29T10:15:40.533Z,4.99
2023-03-29T10:20:49.242Z,5.01
2023-03-29T10:25:57.594Z,5.03
2023-03-29T10:31:08.570Z,5.07
2023-03-29T10:36:17.034Z,5.11
2023-03-29T10:41:25.613Z,5.14
2023-03-29T10:46:36.695Z,5.20
2023-03-29T10:51:49.849Z,5.28
2023-03-29T10:57:00.737Z,5.34
2023-03-29T11:02:40.619Z,5.36
2023-03-29T11:08:09.164Z,5.43
2023-03-29T11:13:24.083Z,5.53
2023-03-29T11:18:53.124Z,5.61
2023-03-29T11:24:17.291Z,5.68
2023-03-29T11:29:30.115Z,5.75
2023-03-29T11:34:50.966Z,5.80
2023-03-29T11:40:12.143Z,5.86
2023-03-29T11:45:28.925Z,5.91
2023-03-29T11:50:44.351Z,5.98
2023-03-29T11:55:56.345Z,6.04
2023-03-29T12:01:09.734Z,6.13
2023-03-29T12:06:22.978Z,6.23
2023-03-29T12:11:38.403Z,6.32
2023-03-29T12:16:52.433Z,6.42
2023-03-29T12:22:03.375Z,6.50
2023-03-29T12:27:29.265Z,6.56
2023-03-29T12:32:48.544Z,6.64
2023-03-29T12:38:24.605Z,6.72
2023-03-29T12:43:51.369Z,6.76
2023-03-29T12:49:35.041Z,6.84
2023-03-29T12:54:42.870Z,6.94
2023-03-29T12:59:52.774Z,7.04
2023-03-29T13:05:02.087Z,7.11
2023-03-29T13:10:30.802Z,7.21
2023-03-29T13:15:39.310Z,7.30
2023-03-29T13:20:54.076Z,7.42
2023-03-29T13:26:24.749Z,7.52
2023-03-29T13:31:48.715Z,7.60
2023-03-29T13:37:05.258Z,7.65
2023-03-29T13:42:22.329Z,7.71
2023-03-29T13:47:58.450Z,7.79
2023-03-29T13:53:17.676Z,7.86
2023-03-29T13:58:36.371Z,7.90
2023-03-29T14:03:47.895Z,7.92
2023-03-29T14:08:57.120Z,7.98
2023-03-29T14:14:06.867Z,8.06
2023-03-29T14:19:20.522Z,8.14
2023-03-29T14:24:36.303Z,8.19
2023-03-29T14:29:46.822Z,8.22
2023-03-29T14:34:54.551Z,8.25
2023-03-29T14:40:02.938Z,8.27
2023-03-29T14:45:15.221Z,8.27
2023-03-29T14:50:23.405Z,8.28
2023-03-29T14:55:31.391Z,8.31
2023-03-29T15:00:44.015Z,8.30
2023-03-29T15:05:56.292Z,8.32
2023-03-29T15:11:04.649Z,8.32
2023-03-29T15:16:15.636Z,8.31
2023-03-29T15:21:33.808Z,8.29
2023-03-29T15:26:42.429Z,8.25
2023-03-29T15:31:59.433Z,8.21
2023-03-29T15:37:08.094Z,8.18
2023-03-29T15:42:16.804Z,8.12
2023-03-29T15:47:24.477Z,8.04
2023-03-29T15:52:32.219Z,7.95
2023-03-29T15:57:40.238Z,7.86
2023-03-29T16:02:47.974Z,7.80
2023-03-29T16:07:55.746Z,7.75
2023-03-29T16:13:03.584Z,7.70
2023-03-29T16:18:11.359Z,7.66
2023-03-29T16:23:18.947Z,7.60
2023-03-29T16:28:26.959Z,7.54
2023-03-29T16:33:34.609Z,7.48
2023-03-29T16:38:42.465Z,7.39
2023-03-29T16:43:49.990Z,7.32
2023-03-29T16:48:58.328Z,7.22
2023-03-29T16:54:05.688Z,7.11
2023-03-29T16:59:13.686Z,7.01
2023-03-29T17:04:20.997Z,6.90
2023-03-29T17:09:29.942Z,6.79
2023-03-29T17:14:37.749Z,6.66
2023-03-29T17:19:45.117Z,6.52
2023-03-29T17:24:52.509Z,6.37
2023-03-29T17:30:00.502Z,6.22
2023-03-29T17:35:08.792Z,6.06
2023-03-29T17:40:18.371Z,5.90
2023-03-29T17:45:26.150Z,5.73
2023-03-29T17:50:33.670Z,5.58
2023-03-29T17:55:42.763Z,5.43
2023-03-29T18:00:50.288Z,5.28
2023-03-29T18:05:58.072Z,5.13
2023-03-29T18:11:12.053Z,5.00
2023-03-29T18:16:20.172Z,4.86
2023-03-29T18:21:27.940Z,4.75
2023-03-29T18:26:35.583Z,4.63
2023-03-29T18:31:44.071Z,4.53
2023-03-29T18:36:51.528Z,4.42
2023-03-29T18:41:58.892Z,4.32
2023-03-29T18:47:06.393Z,4.24
2023-03-29T18:52:14.126Z,4.16
2023-03-29T18:57:21.513Z,4.09
2023-03-29T19:02:29.311Z,4.01
2023-03-29T19:07:37.238Z,3.96
2023-03-29T19:12:44.911Z,3.90
2023-03-29T19:17:52.214Z,3.85
2023-03-29T19:23:00.117Z,3.81
2023-03-29T19:28:09.076Z,3.78
2023-03-29T19:33:17.397Z,3.75
2023-03-29T19:38:24.986Z,3.73
2023-03-29T19:43:33.112Z,3.73
2023-03-29T19:48:40.986Z,3.73
2023-03-29T19:53:48.377Z,3.71
2023-03-29T19:58:56.099Z,3.71
2023-03-29T20:04:03.993Z,3.72
2023-03-29T20:09:11.673Z,3.75
2023-03-29T20:14:19.252Z,3.76
2023-03-29T20:19:27.234Z,3.79
2023-03-29T20:24:35.260Z,3.82
2023-03-29T20:29:43.256Z,3.86
2023-03-29T20:34:51.346Z,3.91
2023-03-29T20:39:59.751Z,3.96
2023-03-29T20:45:08.427Z,4.00
2023-03-29T20:50:19.133Z,4.03
2023-03-29T20:55:27.265Z,4.08
2023-03-29T21:00:35.872Z,4.11
2023-03-29T21:05:43.791Z,4.14
2023-03-29T21:10:52.140Z,4.18
2023-03-29T21:16:01.203Z,4.20
2023-03-29T21:21:11.156Z,4.23
2023-03-29T21:26:18.975Z,4.26
2023-03-29T21:31:26.618Z,4.30
2023-03-29T21:36:34.211Z,4.33
2023-03-29T21:41:41.811Z,4.36
2023-03-29T21:46:49.271Z,4.39
2023-03-29T21:51:57.209Z,4.43
2023-03-29T21:57:04.727Z,4.46
2023-03-29T22:02:12.543Z,4.49
2023-03-29T22:07:23.140Z,4.53
2023-03-29T22:12:30.716Z,4.57
2023-03-29T22:17:38.805Z,4.58
2023-03-29T22:22:50.089Z,4.60
2023-03-29T22:27:57.413Z,4.62
2023-03-29T22:33:05.074Z,4.63
2023-03-29T22:38:13.096Z,4.64
2023-03-29T22:43:20.416Z,4.64
2023-03-29T22:48:28.064Z,4.65
2023-03-29T22:53:35.871Z,4.65
2023-03-29T22:58:43.848Z,4.64
2023-03-29T23:03:51.708Z,4.64
2023-03-29T23:08:59.372Z,4.65
2023-03-29T23:14:07.973Z,4.65
2023-03-29T23:19:15.446Z,4.65
2023-03-29T23:24:23.252Z,4.66
2023-03-29T23:29:30.957Z,4.67
2023-03-29T23:34:38.260Z,4.68
2023-03-29T23:39:45.774Z,4.68
2023-03-29T23:44:53.222Z,4.70
2023-03-29T23:50:02.593Z,4.71
2023-03-29T23:55:15.365Z,4.71
